Time;durP1;ratioP1;P1;durP2;ratioP2;P2;SDS_P1;SDS_P2;PMS_P1;PMS_P2;Temp;Humidity;BMP_temperature;BMP_pressure;BME280_temperature;BME280_humidity;BME280_pressure;Samples;Min_cycle;Max_cycle;Signal;HPM_P1;HPM_P2
2022/10/27 00:01:42;;;;;;;44.97;23.87;;;6.60;99.90;;;;;;10057277;29;20696;-89
2022/10/27 00:06:44;;;;;;;42.43;22.90;;;6.50;99.90;;;;;;10026048;29;20237;-88
2022/10/27 00:11:47;;;;;;;42.30;26.87;;;6.50;99.90;;;;;;10037160;29;20312;-89
2022/10/27 00:16:55;;;;;;;39.90;23.67;;;6.60;99.90;;;;;;10056067;29;20301;-89
2022/10/27 00:21:58;;;;;;;41.07;26.97;;;6.60;99.90;;;;;;10017094;29;20245;-89
2022/10/27 00:27:00;;;;;;;42.47;26.83;;;6.70;99.90;;;;;;10055936;29;20234;-88
2022/10/27 00:32:04;;;;;;;39.43;23.83;;;6.70;99.90;;;;;;10052855;29;20234;-88
2022/10/27 00:37:06;;;;;;;40.03;25.50;;;6.80;99.90;;;;;;10022835;29;20655;-89
2022/10/27 00:42:13;;;;;;;42.27;25.53;;;6.70;99.90;;;;;;10041449;29;20236;-89
2022/10/27 00:47:31;;;;;;;50.23;31.57;;;6.80;99.90;;;;;;10053902;29;20241;-88
2022/10/27 00:52:40;;;;;;;51.90;29.47;;;7.10;99.90;;;;;;10055146;29;20244;-89
2022/10/27 00:57:44;;;;;;;53.37;32.87;;;6.90;99.90;;;;;;10038442;29;20252;-89
2022/10/27 01:02:48;;;;;;;49.63;30.80;;;6.90;99.90;;;;;;10020473;29;20325;-89
2022/10/27 01:07:54;;;;;;;40.57;26.10;;;6.80;99.90;;;;;;10022569;29;20270;-88
2022/10/27 01:12:57;;;;;;;51.73;28.67;;;6.80;99.90;;;;;;10036514;29;20249;-89
2022/10/27 01:18:30;;;;;;;37.53;24.83;;;6.80;99.90;;;;;;10036415;29;20730;-88
2022/10/27 01:23:51;;;;;;;44.57;27.10;;;6.90;99.90;;;;;;10013420;29;20238;-88
2022/10/27 01:29:12;;;;;;;44.03;27.03;;;7.00;99.90;;;;;;10034684;29;20278;-89
2022/10/27 01:34:37;;;;;;;49.07;27.47;;;7.10;99.90;;;;;;10053904;29;20715;-89
2022/10/27 01:39:56;;;;;;;48.63;27.43;;;7.10;99.90;;;;;;10037129;29;20316;-89
2022/10/27 01:45:01;;;;;;;60.23;34.00;;;7.20;99.90;;;;;;10016027;29;20308;-89
2022/10/27 01:50:05;;;;;;;54.40;30.90;;;7.50;99.90;;;;;;10048156;29;20241;-89
2022/10/27 01:55:13;;;;;;;51.33;33.57;;;7.60;99.90;;;;;;10052656;29;21008;-89
2022/10/27 02:00:16;;;;;;;64.90;37.97;;;7.80;99.90;;;;;;10036936;29;20237;-89
2022/10/27 02:05:43;;;;;;;57.83;34.30;;;8.00;99.90;;;;;;10052031;29;20245;-88
2022/10/27 02:11:07;;;;;;;60.30;36.83;;;7.90;99.90;;;;;;10030710;29;20246;-88
2022/10/27 02:16:21;;;;;;;59.30;34.57;;;7.80;99.90;;;;;;10052784;29;20261;-89
2022/10/27 02:21:24;;;;;;;57.37;36.50;;;7.80;99.90;;;;;;10052150;29;20229;-89
2022/10/27 02:26:47;;;;;;;55.80;34.03;;;7.80;99.90;;;;;;10052071;29;20245;-88
2022/10/27 02:31:53;;;;;;;59.00;35.07;;;8.00;99.90;;;;;;10053219;29;20244;-89
2022/10/27 02:36:56;;;;;;;54.20;34.27;;;8.30;99.90;;;;;;10060411;29;20336;-89
2022/10/27 02:42:01;;;;;;;54.27;34.20;;;8.30;99.90;;;;;;10052162;29;20699;-89
2022/10/27 02:47:03;;;;;;;56.30;33.40;;;8.20;99.90;;;;;;10043358;29;20241;-89
2022/10/27 02:52:10;;;;;;;55.33;32.23;;;8.00;99.90;;;;;;10058767;29;20249;-89
2022/10/27 02:57:19;;;;;;;50.57;32.07;;;7.70;99.90;;;;;;10037051;29;20261;-89
2022/10/27 03:02:22;;;;;;;58.93;33.20;;;7.80;99.90;;;;;;10058496;29;20609;-89
2022/10/27 03:07:25;;;;;;;53.00;33.33;;;7.50;99.90;;;;;;10043235;29;20291;-89
2022/10/27 03:12:27;;;;;;;51.47;30.80;;;7.40;99.90;;;;;;10041441;29;20285;-89
2022/10/27 03:17:30;;;;;;;49.50;30.77;;;7.20;99.90;;;;;;10058959;29;20269;-89
2022/10/27 03:22:36;;;;;;;53.17;30.17;;;7.10;99.90;;;;;;10037937;29;20741;-89
2022/10/27 03:27:39;;;;;;;48.83;29.40;;;7.10;99.90;;;;;;10058866;29;20245;-89
2022/10/27 03:32:50;;;;;;;48.67;28.53;;;7.00;99.90;;;;;;10040434;29;20339;-89
2022/10/27 03:38:00;;;;;;;50.30;30.30;;;6.90;99.90;;;;;;10049586;29;20253;-89
2022/10/27 03:43:03;;;;;;;55.93;29.80;;;6.70;99.90;;;;;;10055522;29;20229;-89
2022/10/27 03:48:09;;;;;;;56.17;30.83;;;6.80;99.90;;;;;;10057925;29;20273;-89
2022/10/27 03:53:12;;;;;;;47.47;29.50;;;7.00;99.90;;;;;;10040735;29;20241;-89
2022/10/27 03:58:16;;;;;;;52.00;30.73;;;6.90;99.90;;;;;;10057524;29;20261;-89
2022/10/27 04:03:18;;;;;;;45.43;28.47;;;6.80;99.90;;;;;;10040496;29;20274;-88
2022/10/27 04:08:21;;;;;;;43.43;26.20;;;6.50;99.90;;;;;;10023930;29;20379;-89
2022/10/27 04:13:23;;;;;;;46.13;28.17;;;6.30;99.90;;;;;;10039281;29;20709;-89
2022/10/27 04:18:32;;;;;;;44.13;26.47;;;6.40;99.90;;;;;;10040223;29;20269;-89
2022/10/27 04:23:34;;;;;;;41.93;26.23;;;6.40;99.90;;;;;;10038534;29;20629;-90
2022/10/27 04:28:37;;;;;;;46.87;28.70;;;;;;;;;;10039884;29;20237;-89
2022/10/27 04:33:40;;;;;;;51.27;30.23;;;6.00;99.90;;;;;;10034837;29;20253;-88
2022/10/27 04:38:43;;;;;;;55.03;29.60;;;6.10;99.90;;;;;;10038245;29;20250;-89
2022/10/27 04:43:49;;;;;;;43.80;28.97;;;6.20;99.90;;;;;;10053012;29;20306;-88
2022/10/27 04:48:51;;;;;;;39.67;24.43;;;6.00;99.90;;;;;;10038930;29;20635;-88
2022/10/27 04:53:54;;;;;;;46.43;27.03;;;7.00;99.90;;;;;;10054151;29;20668;-88
2022/10/27 04:58:56;;;;;;;45.10;28.03;;;6.00;99.90;;;;;;10055013;29;20265;-88
2022/10/27 05:03:59;;;;;;;50.77;29.07;;;6.30;99.90;;;;;;10032034;29;20237;-88
2022/10/27 05:09:02;;;;;;;48.23;29.03;;;5.80;99.90;;;;;;10038925;29;20237;-89
2022/10/27 05:14:04;;;;;;;59.90;34.33;;;5.80;99.90;;;;;;10028564;29;20305;-88
2022/10/27 05:19:07;;;;;;;101.57;46.23;;;5.90;99.90;;;;;;10037297;29;20340;-88
2022/10/27 05:24:09;;;;;;;70.43;41.33;;;6.30;99.90;;;;;;10036125;29;20305;-88
2022/10/27 05:29:12;;;;;;;70.80;41.07;;;6.10;99.90;;;;;;10036205;29;20734;-88
2022/10/27 05:34:14;;;;;;;73.40;41.37;;;6.50;99.90;;;;;;10054514;29;20290;-88
2022/10/27 05:39:17;;;;;;;80.47;43.40;;;6.30;99.90;;;;;;10054604;29;20257;-88
2022/10/27 05:44:19;;;;;;;72.47;41.33;;;6.60;99.90;;;;;;10053400;29;21321;-88
2022/10/27 05:49:22;;;;;;;59.00;36.43;;;6.20;99.90;;;;;;10049551;29;20274;-88
2022/10/27 05:54:24;;;;;;;62.00;37.07;;;5.80;99.90;;;;;;10053324;29;20245;-88
2022/10/27 05:59:27;;;;;;;50.20;32.77;;;6.00;99.90;;;;;;10020600;29;20257;-88
2022/10/27 06:04:29;;;;;;;61.50;34.53;;;5.70;99.90;;;;;;10053109;29;20687;-89
2022/10/27 06:09:32;;;;;;;71.00;35.90;;;5.80;99.90;;;;;;10031205;29;20283;-88
2022/10/27 06:14:34;;;;;;;59.93;33.63;;;5.80;99.90;;;;;;10052766;29;20285;-88
2022/10/27 06:19:37;;;;;;;59.37;34.40;;;6.10;99.90;;;;;;10036030;29;20269;-88
2022/10/27 06:24:39;;;;;;;58.03;31.07;;;6.00;99.90;;;;;;10051543;29;20226;-87
2022/10/27 06:29:42;;;;;;;56.73;31.43;;;6.20;99.90;;;;;;10036038;29;20262;-88
2022/10/27 06:34:44;;;;;;;56.13;31.87;;;6.20;99.90;;;;;;10051980;29;20752;-88
2022/10/27 06:39:48;;;;;;;44.63;28.53;;;6.40;99.90;;;;;;10051935;29;20246;-91
2022/10/27 06:44:50;;;;;;;45.80;29.33;;;7.80;99.90;;;;;;10035468;29;20311;-92
2022/10/27 06:49:53;;;;;;;51.10;31.87;;;7.30;99.90;;;;;;10036605;29;20213;-93
2022/10/27 06:54:55;;;;;;;60.13;33.40;;;7.20;99.90;;;;;;10037035;29;20245;-93
2022/10/27 06:59:58;;;;;;;57.17;30.03;;;7.90;99.90;;;;;;10042501;29;20266;-87
2022/10/27 07:05:01;;;;;;;47.40;29.30;;;8.40;99.90;;;;;;10049100;29;20830;-87
2022/10/27 07:10:06;;;;;;;51.00;28.63;;;8.00;99.90;;;;;;10019741;29;20744;-87
2022/10/27 07:15:09;;;;;;;42.97;28.40;;;8.30;99.90;;;;;;10035857;29;20309;-88
2022/10/27 07:20:11;;;;;;;52.17;29.70;;;8.50;99.90;;;;;;10055278;29;20334;-87
2022/10/27 07:25:14;;;;;;;45.77;28.27;;;9.00;99.90;;;;;;10058064;29;20245;-87
2022/10/27 07:30:17;;;;;;;45.03;28.17;;;9.20;99.90;;;;;;10059668;29;20265;-88
2022/10/27 07:35:20;;;;;;;38.93;26.30;;;9.60;99.90;;;;;;10059557;29;20257;-89
2022/10/27 07:40:23;;;;;;;47.03;28.53;;;9.70;99.90;;;;;;10041030;29;20229;-88
2022/10/27 07:45:33;;;;;;;49.83;32.63;;;9.90;99.90;;;;;;10058489;29;20640;-89
2022/10/27 07:50:35;;;;;;;43.20;27.93;;;10.20;99.90;;;;;;10058376;29;20728;-88
2022/10/27 07:55:38;;;;;;;43.67;29.00;;;10.60;99.90;;;;;;10056276;29;20257;-89
2022/10/27 08:00:44;;;;;;;43.13;27.07;;;10.80;99.90;;;;;;10041794;29;20249;-88
2022/10/27 08:05:47;;;;;;;35.73;24.23;;;11.10;99.90;;;;;;10058218;29;20237;-88
2022/10/27 08:10:50;;;;;;;36.77;25.23;;;11.40;99.90;;;;;;10028736;29;20215;-88
2022/10/27 08:15:58;;;;;;;37.00;24.10;;;11.50;99.90;;;;;;10052806;29;20246;-88
2022/10/27 08:21:04;;;;;;;35.40;23.90;;;12.00;99.90;;;;;;10055543;29;20238;-88
2022/10/27 08:26:07;;;;;;;34.77;21.60;;;12.30;99.90;;;;;;10037453;29;20250;-88
2022/10/27 08:31:09;;;;;;;34.47;22.63;;;12.60;99.90;;;;;;10038795;29;20209;-88
2022/10/27 08:36:12;;;;;;;29.30;20.73;;;12.50;99.90;;;;;;10056665;29;20657;-88
2022/10/27 08:41:36;;;;;;;31.70;20.87;;;12.60;99.90;;;;;;10021458;29;20229;-88
2022/10/27 08:46:52;;;;;;;29.47;20.07;;;12.80;99.90;;;;;;10017844;29;20234;-88
2022/10/27 08:52:04;;;;;;;31.13;19.43;;;12.90;99.90;;;;;;10011341;29;20301;-88
2022/10/27 08:57:12;;;;;;;29.67;19.07;;;13.20;99.90;;;;;;10054576;29;20254;-88
2022/10/27 09:02:54;;;;;;;23.90;17.53;;;13.50;99.90;;;;;;10034551;29;20321;-88
2022/10/27 09:08:06;;;;;;;27.20;17.10;;;;;;;;;;10038395;29;20237;-88
2022/10/27 09:13:28;;;;;;;25.37;15.87;;;13.90;99.90;;;;;;10053690;29;20277;-88
2022/10/27 09:18:45;;;;;;;27.97;16.63;;;14.70;99.90;;;;;;10052964;29;20277;-88
2022/10/27 09:23:58;;;;;;;25.50;16.57;;;14.40;99.90;;;;;;10036659;29;20266;-88
2022/10/27 09:29:02;;;;;;;21.40;15.17;;;;;;;;;;10053173;29;20248;-88
2022/10/27 09:34:26;;;;;;;22.97;15.27;;;16.00;99.90;;;;;;10053765;29;20245;-88
2022/10/27 09:39:29;;;;;;;28.33;17.17;;;15.30;99.90;;;;;;10020646;29;20252;-90
2022/10/27 09:44:33;;;;;;;25.27;17.70;;;15.80;99.90;;;;;;10004786;29;20769;-94
2022/10/27 09:49:42;;;;;;;24.07;15.47;;;15.70;99.90;;;;;;10036867;29;20243;-95
2022/10/27 09:54:53;;;;;;;22.53;14.50;;;15.90;99.90;;;;;;10038995;29;20205;-94
2022/10/27 10:00:01;;;;;;;22.30;14.00;;;16.40;99.90;;;;;;10037567;29;20260;-93
2022/10/27 10:05:23;;;;;;;20.37;14.03;;;16.00;99.90;;;;;;10046584;29;20680;-95
2022/10/27 10:10:31;;;;;;;25.63;14.77;;;16.40;99.90;;;;;;10038583;29;20277;-95
2022/10/27 10:15:37;;;;;;;22.03;14.63;;;16.30;99.90;;;;;;10037063;29;20696;-93
2022/10/27 10:20:42;;;;;;;20.50;13.10;;;16.60;99.90;;;;;;10036435;29;20823;-94
2022/10/27 10:25:46;;;;;;;18.57;13.10;;;16.70;99.90;;;;;;10036665;29;20770;-94
2022/10/27 10:30:52;;;;;;;17.43;13.50;;;16.30;99.90;;;;;;10061089;23;20836;-85
2022/10/27 10:35:57;;;;;;;17.40;13.03;;;16.30;99.90;;;;;;10074179;29;20213;-84
2022/10/27 10:41:11;;;;;;;21.33;14.03;;;17.00;99.90;;;;;;10090907;29;20292;-85
2022/10/27 10:46:23;;;;;;;21.37;12.23;;;17.10;99.90;;;;;;10090734;29;20236;-85
2022/10/27 10:51:31;;;;;;;19.73;14.17;;;16.90;99.90;;;;;;10073321;29;20228;-85
2022/10/27 10:56:36;;;;;;;19.63;13.93;;;17.20;99.90;;;;;;10097244;29;20717;-85
2022/10/27 11:01:46;;;;;;;18.67;13.20;;;17.30;99.90;;;;;;10097882;29;20233;-85
2022/10/27 11:07:14;;;;;;;18.23;12.70;;;17.20;99.90;;;;;;10097746;29;20248;-85
2022/10/27 11:12:50;;;;;;;16.80;11.83;;;17.40;99.90;;;;;;10097248;29;20315;-85
2022/10/27 11:18:00;;;;;;;20.83;14.30;;;17.50;99.90;;;;;;10096480;29;20326;-85
2022/10/27 11:23:12;;;;;;;18.90;13.97;;;17.60;99.90;;;;;;10076573;29;20238;-85
2022/10/27 11:28:35;;;;;;;20.67;13.57;;;17.40;99.90;;;;;;10095123;29;20770;-85
2022/10/27 11:34:15;;;;;;;15.67;10.63;;;17.30;99.90;;;;;;10094363;29;20289;-85
2022/10/27 11:39:30;;;;;;;16.03;11.27;;;17.30;99.90;;;;;;9927368;29;20318;-86
2022/10/27 11:44:54;;;;;;;17.80;10.87;;;17.70;99.90;;;;;;9904373;29;20260;-86
2022/10/27 11:50:02;;;;;;;17.97;11.30;;;18.00;99.90;;;;;;9918706;29;20251;-86
2022/10/27 11:55:06;;;;;;;18.10;13.03;;;18.20;99.90;;;;;;9928801;29;20253;-86
2022/10/27 12:00:22;;;;;;;19.67;11.37;;;18.50;99.90;;;;;;9937566;29;20305;-85
2022/10/27 12:05:59;;;;;;;23.03;13.30;;;19.30;99.90;;;;;;9927712;29;20272;-86
2022/10/27 12:11:42;;;;;;;20.77;14.67;;;19.40;99.90;;;;;;9893690;29;20246;-86
2022/10/27 12:17:07;;;;;;;20.23;14.00;;;19.20;99.90;;;;;;10056142;29;20300;-86
2022/10/27 12:22:50;;;;;;;24.10;15.90;;;18.40;99.90;;;;;;10091396;29;20237;-87
2022/10/27 12:27:57;;;;;;;21.77;13.07;;;19.20;99.90;;;;;;10089358;29;20683;-87
2022/10/27 12:33:21;;;;;;;26.33;15.73;;;19.00;99.90;;;;;;10093438;29;20273;-87
2022/10/27 12:38:29;;;;;;;23.27;15.90;;;19.00;99.90;;;;;;10076377;29;20263;-87
2022/10/27 12:43:43;;;;;;;19.27;15.77;;;19.30;99.90;;;;;;10092586;29;20248;-88
2022/10/27 12:48:59;;;;;;;23.37;13.57;;;18.80;99.90;;;;;;10085363;29;20246;-87
2022/10/27 12:54:30;;;;;;;19.20;15.27;;;18.60;99.90;;;;;;10058557;29;20240;-88
2022/10/27 13:00:10;;;;;;;23.10;13.83;;;19.20;99.90;;;;;;10071018;29;20301;-87
2022/10/27 13:05:35;;;;;;;19.17;15.50;;;18.80;99.90;;;;;;10087645;29;20241;-87
2022/10/27 13:11:09;;;;;;;24.23;13.53;;;19.30;99.90;;;;;;10086855;29;20282;-90
2022/10/27 13:16:30;;;;;;;19.93;15.27;;;19.20;99.90;;;;;;10088203;29;20240;-86
2022/10/27 13:21:48;;;;;;;21.10;15.60;;;19.20;99.90;;;;;;10087209;29;20242;-86
2022/10/27 13:27:02;;;;;;;24.03;16.33;;;18.80;99.90;;;;;;10073924;29;20290;-86
2022/10/27 13:32:26;;;;;;;22.60;14.80;;;19.30;99.90;;;;;;10072224;29;20264;-84
2022/10/27 13:37:47;;;;;;;18.17;13.70;;;19.30;99.90;;;;;;10086063;29;20260;-83
2022/10/27 13:42:54;;;;;;;20.13;15.83;;;19.30;99.90;;;;;;10088600;29;20228;-84
2022/10/27 13:48:09;;;;;;;22.40;13.73;;;;;;;;;;10069938;29;20236;-84
2022/10/27 13:53:19;;;;;;;19.60;14.13;;;19.30;99.90;;;;;;10083720;29;20230;-84
2022/10/27 13:58:45;;;;;;;25.70;15.50;;;19.50;99.90;;;;;;10085017;29;20260;-83
2022/10/27 14:04:20;;;;;;;21.83;14.47;;;19.30;99.90;;;;;;10083184;29;20766;-83
2022/10/27 14:09:29;;;;;;;20.97;14.53;;;19.30;99.90;;;;;;10071391;29;20299;-83
2022/10/27 14:14:34;;;;;;;28.63;16.27;;;19.20;99.90;;;;;;10086293;29;20253;-83
2022/10/27 14:19:38;;;;;;;24.03;15.63;;;18.60;99.90;;;;;;10087537;29;20312;-82
2022/10/27 14:24:56;;;;;;;26.00;17.10;;;18.50;99.90;;;;;;10089772;29;20291;-82
2022/10/27 14:30:20;;;;;;;25.40;16.57;;;18.30;99.90;;;;;;10089138;29;20275;-83
2022/10/27 14:35:28;;;;;;;19.57;13.93;;;17.60;99.90;;;;;;10088625;29;20250;-83
2022/10/27 14:40:37;;;;;;;28.43;17.20;;;17.80;99.90;;;;;;10088524;29;20307;-82
2022/10/27 14:45:40;;;;;;;27.67;18.93;;;17.20;99.90;;;;;;10089551;29;20263;-82
2022/10/27 14:50:44;;;;;;;25.17;17.37;;;16.80;99.90;;;;;;10071561;29;20238;-82
2022/10/27 14:56:01;;;;;;;29.43;18.00;;;16.50;99.90;;;;;;10089249;29;20706;-83
2022/10/27 15:01:04;;;;;;;16.30;12.07;;;16.10;99.90;;;;;;10071782;29;20271;-84
2022/10/27 15:06:16;;;;;;;21.40;14.57;;;17.40;99.90;;;;;;10073193;29;20241;-83
2022/10/27 15:11:25;;;;;;;18.40;14.37;;;16.90;99.90;;;;;;10086861;29;20240;-82
2022/10/27 15:16:31;;;;;;;25.03;17.73;;;16.40;99.90;;;;;;10072368;29;20252;-85
2022/10/27 15:21:33;;;;;;;24.83;16.33;;;15.30;99.90;;;;;;10087062;29;20316;-84
2022/10/27 15:26:38;;;;;;;27.67;19.30;;;14.70;99.90;;;;;;10089171;29;20627;-85
2022/10/27 15:31:41;;;;;;;36.30;18.33;;;14.30;99.90;;;;;;10087911;29;20272;-86
2022/10/27 15:36:45;;;;;;;36.57;20.67;;;13.80;99.90;;;;;;10089471;29;20271;-84
2022/10/27 15:41:50;;;;;;;32.60;18.63;;;13.50;99.90;;;;;;10091780;29;20345;-86
2022/10/27 15:46:52;;;;;;;37.83;21.50;;;13.20;99.90;;;;;;10093465;29;20691;-82
2022/10/27 15:52:02;;;;;;;30.07;20.17;;;13.10;99.90;;;;;;10083192;29;20240;-85
2022/10/27 15:57:30;;;;;;;46.97;22.90;;;12.80;99.90;;;;;;10077038;29;20244;-85
2022/10/27 16:02:35;;;;;;;44.53;24.67;;;12.70;99.90;;;;;;10080977;29;20244;-86
2022/10/27 16:07:37;;;;;;;47.97;26.33;;;12.50;99.90;;;;;;10087682;29;20226;-86
2022/10/27 16:12:43;;;;;;;55.37;29.47;;;12.40;99.90;;;;;;10103019;29;20276;-85
2022/10/27 16:17:59;;;;;;;58.77;31.17;;;12.10;99.90;;;;;;10074542;29;20252;-86
2022/10/27 16:23:01;;;;;;;54.87;31.60;;;11.90;99.90;;;;;;10089337;29;20243;-85
2022/10/27 16:28:23;;;;;;;54.63;31.17;;;11.80;99.90;;;;;;10092425;29;20252;-84
2022/10/27 16:44:49;;;;;;;55.50;30.03;;;11.50;99.90;;;;;;9958787;29;20258;-95
2022/10/27 16:49:55;;;;;;;62.20;33.27;;;11.30;99.90;;;;;;9963909;29;20272;-95
2022/10/27 16:54:57;;;;;;;56.87;29.07;;;11.60;99.90;;;;;;9944800;29;20211;-94
2022/10/27 17:00:00;;;;;;;25.43;16.73;;;11.50;99.90;;;;;;9940892;29;20698;-95
2022/10/27 17:05:06;;;;;;;76.10;29.30;;;12.10;99.90;;;;;;9946450;29;20210;-94
2022/10/27 17:10:09;;;;;;;73.57;29.87;;;13.40;99.90;;;;;;9955433;29;20215;-92
2022/10/27 17:15:12;;;;;;;54.73;32.03;;;13.90;99.90;;;;;;9929400;29;20280;-94
2022/10/27 17:20:14;;;;;;;60.83;35.10;;;12.00;99.90;;;;;;9944755;29;20232;-94
2022/10/27 17:25:17;;;;;;;68.63;40.33;;;11.50;99.90;;;;;;9926702;29;20232;-94
2022/10/27 17:30:20;;;;;;;75.23;42.93;;;11.20;99.90;;;;;;9936080;29;20213;-94
2022/10/27 17:35:22;;;;;;;84.57;46.00;;;11.30;99.90;;;;;;9950994;29;20570;-94
2022/10/27 17:40:25;;;;;;;70.17;41.10;;;11.20;99.90;;;;;;9962332;29;20729;-94
2022/10/27 17:45:27;;;;;;;65.47;35.50;;;10.80;99.90;;;;;;9939904;29;20583;-94
2022/10/27 17:50:30;;;;;;;61.90;35.43;;;10.60;99.90;;;;;;9934073;29;20692;-94
2022/10/27 17:55:33;;;;;;;65.37;36.37;;;10.60;99.90;;;;;;9926167;29;20223;-94
2022/10/27 18:00:40;;;;;;;63.33;36.63;;;10.60;99.90;;;;;;9949711;29;20295;-94
2022/10/27 18:05:43;;;;;;;57.27;30.80;;;10.30;99.90;;;;;;9933188;29;20292;-94
2022/10/27 18:10:46;;;;;;;63.73;35.93;;;10.10;99.90;;;;;;9950118;29;20362;-94
2022/10/27 18:15:48;;;;;;;95.93;44.73;;;10.30;99.90;;;;;;9945274;29;20299;-94
2022/10/27 18:20:51;;;;;;;76.13;37.73;;;10.30;99.90;;;;;;9942464;29;20267;-95
2022/10/27 18:25:58;;;;;;;58.00;34.83;;;10.10;99.90;;;;;;9945280;29;20267;-94
2022/10/27 18:31:06;;;;;;;65.77;37.00;;;10.10;99.90;;;;;;9937980;29;20292;-95
2022/10/27 18:36:11;;;;;;;62.70;37.67;;;10.10;99.90;;;;;;9939545;29;20240;-95
2022/10/27 18:41:15;;;;;;;58.13;34.87;;;10.00;99.90;;;;;;9934645;29;21006;-94
2022/10/27 18:46:19;;;;;;;63.73;34.93;;;10.00;99.90;;;;;;9936920;29;20909;-96
2022/10/27 18:51:22;;;;;;;64.30;35.63;;;9.90;99.90;;;;;;9941784;29;20212;-94
2022/10/27 18:56:24;;;;;;;65.77;37.97;;;9.70;99.90;;;;;;9923815;29;20266;-96
2022/10/27 19:01:27;;;;;;;65.87;37.70;;;9.70;99.90;;;;;;9945024;29;20235;-96
2022/10/27 19:06:33;;;;;;;76.37;43.53;;;9.70;99.90;;;;;;9934841;29;20269;-95
2022/10/27 19:11:36;;;;;;;70.73;41.67;;;9.80;99.90;;;;;;9924680;29;20706;-95
2022/10/27 19:16:39;;;;;;;71.30;41.77;;;9.80;99.90;;;;;;9938479;29;20271;-96
2022/10/27 19:21:41;;;;;;;74.07;42.27;;;9.70;99.90;;;;;;9941513;29;20228;-95
2022/10/27 19:26:44;;;;;;;71.10;39.50;;;9.50;99.90;;;;;;9946066;29;20211;-93
2022/10/27 19:31:47;;;;;;;67.83;38.97;;;9.40;99.90;;;;;;9954443;29;20207;-93
2022/10/27 19:36:49;;;;;;;55.03;35.40;;;9.40;99.90;;;;;;9966526;29;20589;-93
2022/10/27 19:41:54;;;;;;;63.17;36.10;;;9.60;99.90;;;;;;9981806;29;20278;-94
2022/10/27 19:46:56;;;;;;;60.00;34.67;;;9.20;99.90;;;;;;9976312;29;20218;-94
2022/10/27 19:51:59;;;;;;;53.53;33.53;;;9.00;99.90;;;;;;9985242;29;20208;-94
2022/10/27 19:57:02;;;;;;;57.47;34.47;;;8.90;99.90;;;;;;9968578;29;20239;-93
2022/10/27 20:02:05;;;;;;;45.97;30.20;;;9.00;99.90;;;;;;9928643;29;20236;-93
2022/10/27 20:07:08;;;;;;;56.20;35.03;;;8.70;99.90;;;;;;9929917;29;20235;-93
2022/10/27 20:12:10;;;;;;;54.53;34.73;;;9.00;99.90;;;;;;9930418;29;20219;-92
2022/10/27 20:17:13;;;;;;;55.97;32.77;;;8.90;99.90;;;;;;9935219;29;20240;-94
2022/10/27 20:22:16;;;;;;;69.73;35.77;;;8.90;99.90;;;;;;9981716;29;20287;-92
2022/10/27 20:27:20;;;;;;;86.47;39.03;;;8.60;99.90;;;;;;9963123;29;20281;-92
2022/10/27 20:32:22;;;;;;;73.83;39.07;;;8.60;99.90;;;;;;9970192;29;20239;-92
2022/10/27 20:37:25;;;;;;;56.90;37.23;;;8.60;99.90;;;;;;10002806;29;20699;-93
2022/10/27 20:42:28;;;;;;;60.27;34.97;;;8.60;99.90;;;;;;9971482;29;20709;-93
2022/10/27 20:47:31;;;;;;;60.70;34.70;;;8.40;99.90;;;;;;9944837;29;20292;-93
2022/10/27 20:52:33;;;;;;;64.20;37.40;;;8.40;99.90;;;;;;9981087;29;20203;-92
2022/10/27 20:57:36;;;;;;;70.93;36.00;;;8.30;99.90;;;;;;9964230;29;20607;-93
2022/10/27 21:02:40;;;;;;;62.83;35.50;;;8.40;99.90;;;;;;9960658;29;20324;-94
2022/10/27 21:07:43;;;;;;;66.83;35.63;;;8.20;99.90;;;;;;9945052;29;20761;-92
2022/10/27 21:12:46;;;;;;;92.23;38.77;;;8.10;99.90;;;;;;9954051;29;20267;-94
2022/10/27 21:17:51;;;;;;;84.33;36.73;;;8.20;99.90;;;;;;9953210;29;20247;-92
2022/10/27 21:22:54;;;;;;;101.60;40.77;;;8.30;99.90;;;;;;9938672;29;20288;-93
2022/10/27 21:27:58;;;;;;;89.77;37.87;;;8.30;99.90;;;;;;9916780;29;20277;-93
2022/10/27 21:33:00;;;;;;;76.00;37.67;;;8.30;99.90;;;;;;9975928;29;20302;-94
2022/10/27 21:38:02;;;;;;;83.17;38.53;;;8.30;99.90;;;;;;9930432;29;20555;-94
2022/10/27 21:43:05;;;;;;;51.50;30.07;;;8.30;99.90;;;;;;9913136;29;20247;-96
2022/10/27 21:48:09;;;;;;;39.00;22.97;;;10.80;99.90;;;;;;9956181;29;20220;-96
2022/10/27 21:53:12;;;;;;;38.60;21.77;;;11.50;99.90;;;;;;9952646;29;20228;-96
2022/10/27 21:58:15;;;;;;;42.53;22.40;;;10.80;99.90;;;;;;9986029;29;20215;-96
2022/10/27 22:03:18;;;;;;;30.67;20.50;;;11.70;99.90;;;;;;9982024;29;20235;-96
2022/10/27 22:08:21;;;;;;;40.30;23.40;;;12.30;99.90;;;;;;9940811;29;20221;-96
2022/10/27 22:13:23;;;;;;;34.33;21.33;;;12.30;99.90;;;;;;9960433;29;20216;-96
2022/10/27 22:18:26;;;;;;;38.40;20.97;;;12.00;99.90;;;;;;9982114;29;20226;-96
2022/10/27 22:23:28;;;;;;;36.27;21.33;;;12.30;99.90;;;;;;9974233;29;20286;-96
2022/10/27 22:28:31;;;;;;;35.67;20.50;;;12.60;99.90;;;;;;9993877;29;20214;-95
2022/10/27 22:33:34;;;;;;;46.37;21.73;;;12.80;99.90;;;;;;9980790;29;20219;-96
2022/10/27 22:38:36;;;;;;;39.37;21.63;;;12.30;99.90;;;;;;9999454;29;20248;-96
2022/10/27 22:43:39;;;;;;;41.17;20.40;;;12.60;99.90;;;;;;9979887;29;20268;-96
2022/10/27 22:48:42;;;;;;;33.73;20.43;;;12.40;99.90;;;;;;9974742;29;20296;-96
2022/10/27 22:53:45;;;;;;;29.97;18.87;;;13.30;99.90;;;;;;10010021;29;20215;-96
2022/10/27 22:58:53;;;;;;;28.67;18.50;;;12.90;99.90;;;;;;9975789;29;20223;-96
2022/10/27 23:03:58;;;;;;;30.93;19.17;;;12.40;99.90;;;;;;10011119;29;20263;-96
2022/10/27 23:09:04;;;;;;;26.50;18.87;;;12.70;99.90;;;;;;10007505;29;20215;-96
2022/10/27 23:14:09;;;;;;;31.47;19.73;;;12.80;99.90;;;;;;9966895;29;20276;-96
2022/10/27 23:19:12;;;;;;;33.80;20.00;;;12.60;99.90;;;;;;9983747;29;20235;-96
2022/10/27 23:24:15;;;;;;;32.67;19.37;;;12.90;99.90;;;;;;9980794;29;20313;-96
2022/10/27 23:29:17;;;;;;;32.63;19.00;;;12.70;99.90;;;;;;9945634;29;20212;-96
2022/10/27 23:34:20;;;;;;;32.33;19.07;;;12.90;99.90;;;;;;9995886;29;20695;-96
2022/10/27 23:39:22;;;;;;;21.17;14.50;;;13.70;99.90;;;;;;9986393;29;20289;-96
2022/10/27 23:44:25;;;;;;;34.70;19.67;;;13.80;99.90;;;;;;9961383;29;20579;-96
2022/10/27 23:49:27;;;;;;;32.00;20.93;;;12.70;99.90;;;;;;9977873;29;20203;-96
2022/10/27 23:54:30;;;;;;;23.83;17.57;;;12.50;99.90;;;;;;9978648;29;20215;-96
2022/10/27 23:59:32;;;;;;;30.57;17.40;;;13.30;99.90;;;;;;9980288;29;20216;-95
